createdAt,value
2022-11-18T00:01:57.971Z,2.77
2022-11-18T00:04:25.273Z,2.53
2022-11-18T00:06:52.564Z,2.43
2022-11-18T00:09:20.243Z,2.60
2022-11-18T00:12:06.701Z,2.00
2022-11-18T00:14:33.971Z,1.93
2022-11-18T00:17:03.022Z,1.50
2022-11-18T00:19:32.778Z,1.07
2022-11-18T00:22:00.170Z,1.40
2022-11-18T00:24:27.501Z,1.00
2022-11-18T00:26:55.302Z,1.00
2022-11-18T00:29:23.129Z,0.87
2022-11-18T00:31:50.709Z,1.50
2022-11-18T00:34:19.167Z,1.43
2022-11-18T00:36:47.088Z,1.90
2022-11-18T00:39:15.922Z,1.80
2022-11-18T00:42:02.195Z,2.00
2022-11-18T00:44:29.595Z,2.63
2022-11-18T00:47:00.052Z,2.00
2022-11-18T00:49:27.952Z,2.07
2022-11-18T00:51:55.260Z,2.00
2022-11-18T00:54:22.659Z,1.50
2022-11-18T00:56:49.981Z,1.60
2022-11-18T00:59:17.524Z,1.80
2022-11-18T01:01:45.203Z,1.90
2022-11-18T01:04:12.598Z,1.93
2022-11-18T01:06:39.914Z,1.90
2022-11-18T01:09:07.260Z,1.87
2022-11-18T01:11:53.149Z,2.20
2022-11-18T01:14:20.387Z,1.73
2022-11-18T01:16:51.547Z,1.77
2022-11-18T01:19:19.453Z,1.97
2022-11-18T01:21:47.041Z,1.43
2022-11-18T01:24:14.432Z,1.10
2022-11-18T01:26:41.754Z,1.50
2022-11-18T01:29:09.037Z,1.23
2022-11-18T01:31:45.533Z,0.90
2022-11-18T01:34:22.801Z,1.07
2022-11-18T01:36:53.523Z,1.00
2022-11-18T01:39:20.829Z,1.00
2022-11-18T01:41:48.127Z,0.90
2022-11-18T01:44:34.328Z,0.70
2022-11-18T01:47:01.631Z,0.80
2022-11-18T01:49:29.377Z,0.70
2022-11-18T01:51:57.984Z,0.70
2022-11-18T01:54:36.615Z,0.90
2022-11-18T01:57:06.496Z,0.90
2022-11-18T01:59:36.002Z,1.00
2022-11-18T02:02:07.117Z,1.10
2022-11-18T02:04:35.123Z,1.60
2022-11-18T02:07:02.516Z,1.60
2022-11-18T02:09:29.866Z,3.90
2022-11-18T02:11:57.493Z,7.67
2022-11-18T02:14:24.919Z,14.93
2022-11-18T02:16:59.950Z,16.50
2022-11-18T02:19:27.329Z,2.83
2022-11-18T02:21:54.659Z,1.40
2022-11-18T02:24:48.349Z,1.40
2022-11-18T02:27:49.704Z,1.10
2022-11-18T02:30:18.260Z,1.27
2022-11-18T02:32:45.565Z,1.90
2022-11-18T02:35:19.035Z,1.27
2022-11-18T02:37:57.892Z,1.30
2022-11-18T02:40:26.988Z,1.10
2022-11-18T02:43:01.893Z,2.40
2022-11-18T02:45:30.191Z,2.00
2022-11-18T02:47:58.614Z,1.53
2022-11-18T02:50:27.208Z,1.30
2022-11-18T02:52:58.045Z,1.30
2022-11-18T02:55:26.929Z,1.10
2022-11-18T02:57:54.686Z,1.00
2022-11-18T03:00:22.560Z,2.40
2022-11-18T03:02:50.593Z,1.10
2022-11-18T03:05:26.699Z,1.00
2022-11-18T03:07:57.542Z,0.80
2022-11-18T03:10:26.465Z,1.20
2022-11-18T03:13:08.045Z,0.73
2022-11-18T03:15:35.355Z,0.73
2022-11-18T03:18:11.846Z,0.90
2022-11-18T03:20:40.387Z,0.80
2022-11-18T03:23:13.129Z,0.90
2022-11-18T03:25:50.658Z,0.60
2022-11-18T03:28:26.772Z,0.80
2022-11-18T03:31:12.739Z,0.60
2022-11-18T03:33:43.602Z,0.80
2022-11-18T03:36:12.176Z,0.57
2022-11-18T03:38:42.489Z,0.87
2022-11-18T03:41:11.639Z,1.40
2022-11-18T03:43:41.448Z,1.10
2022-11-18T03:46:11.087Z,0.90
2022-11-18T03:48:41.654Z,0.60
2022-11-18T03:51:10.579Z,0.93
2022-11-18T03:53:39.577Z,0.80
2022-11-18T03:56:30.138Z,0.60
2022-11-18T03:59:17.488Z,0.70
2022-11-18T04:01:56.549Z,1.10
2022-11-18T04:04:25.414Z,1.60
2022-11-18T04:06:59.647Z,0.87
2022-11-18T04:09:30.475Z,1.50
2022-11-18T04:12:03.962Z,0.90
2022-11-18T04:14:36.355Z,1.77
2022-11-18T04:17:11.456Z,0.60
2022-11-18T04:19:39.005Z,1.00
2022-11-18T04:22:06.699Z,0.80
2022-11-18T04:24:34.563Z,0.60
2022-11-18T04:27:02.790Z,0.90
2022-11-18T04:29:31.007Z,0.80
2022-11-18T04:31:58.456Z,0.63
2022-11-18T04:34:26.114Z,0.87
2022-11-18T04:36:53.674Z,0.60
2022-11-18T04:39:21.036Z,0.50
2022-11-18T04:41:57.337Z,0.80
2022-11-18T04:44:25.865Z,0.50
2022-11-18T04:46:53.634Z,0.60
2022-11-18T04:49:21.047Z,0.60
2022-11-18T04:51:48.620Z,0.60
2022-11-18T04:54:16.056Z,0.80
2022-11-18T04:56:48.696Z,0.97
2022-11-18T04:59:17.843Z,0.70
2022-11-18T05:01:45.404Z,0.63
2022-11-18T05:04:16.708Z,0.77
2022-11-18T05:06:44.219Z,0.60
2022-11-18T05:09:11.819Z,0.50
2022-11-18T05:11:58.249Z,0.50
2022-11-18T05:14:29.182Z,0.80
2022-11-18T05:16:57.136Z,1.40
2022-11-18T05:19:24.498Z,0.60
2022-11-18T05:21:51.852Z,1.70
2022-11-18T05:24:19.836Z,0.60
2022-11-18T05:26:48.313Z,0.50
2022-11-18T05:29:16.107Z,1.10
2022-11-18T05:31:43.664Z,0.70
2022-11-18T05:34:11.018Z,1.80
2022-11-18T05:36:38.291Z,0.70
2022-11-18T05:39:05.728Z,0.47
2022-11-18T05:41:51.780Z,0.50
2022-11-18T05:44:19.251Z,0.60
2022-11-18T05:46:46.553Z,0.50
2022-11-18T05:49:13.912Z,0.60
2022-11-18T05:51:41.574Z,0.60
2022-11-18T05:54:09.800Z,0.90
2022-11-18T05:56:39.710Z,0.60
2022-11-18T05:59:07.624Z,0.60
2022-11-18T06:01:50.698Z,0.57
2022-11-18T06:04:20.789Z,0.70
2022-11-18T06:06:49.765Z,0.80
2022-11-18T06:09:20.105Z,0.50
2022-11-18T06:11:50.336Z,0.70
2022-11-18T06:14:23.272Z,0.53
2022-11-18T06:16:52.496Z,0.83
2022-11-18T06:19:20.280Z,0.60
2022-11-18T06:21:48.758Z,0.60
2022-11-18T06:24:16.354Z,0.60
2022-11-18T06:26:43.846Z,0.60
2022-11-18T06:29:12.242Z,0.80
2022-11-18T06:31:39.738Z,0.70
2022-11-18T06:34:06.977Z,0.63
2022-11-18T06:36:34.342Z,0.60
2022-11-18T06:39:05.919Z,0.70
2022-11-18T06:41:33.895Z,1.20
2022-11-18T06:44:01.156Z,1.20
2022-11-18T06:46:47.142Z,0.70
2022-11-18T06:49:14.322Z,0.83
2022-11-18T06:51:41.846Z,0.80
2022-11-18T06:54:10.880Z,0.60
2022-11-18T06:56:38.847Z,0.80
2022-11-18T06:59:06.220Z,0.70
2022-11-18T07:01:35.687Z,0.80
2022-11-18T07:04:03.393Z,0.60
2022-11-18T07:06:32.086Z,0.90
2022-11-18T07:09:01.003Z,1.53
2022-11-18T07:11:28.498Z,3.37
2022-11-18T07:13:55.889Z,1.47
2022-11-18T07:16:24.440Z,6.97
2022-11-18T07:18:52.384Z,2.00
2022-11-18T07:21:23.835Z,0.83
2022-11-18T07:23:51.227Z,0.77
2022-11-18T07:26:18.920Z,0.87
2022-11-18T07:28:46.303Z,0.60
2022-11-18T07:31:14.927Z,0.90
2022-11-18T07:33:42.867Z,1.43
2022-11-18T07:36:11.454Z,1.60
2022-11-18T07:38:38.955Z,1.57
2022-11-18T07:41:07.625Z,0.60
2022-11-18T07:43:35.546Z,0.80
2022-11-18T07:46:10.463Z,0.73
2022-11-18T07:48:37.883Z,1.50
2022-11-18T07:51:05.506Z,1.43
2022-11-18T07:53:33.607Z,0.50
2022-11-18T07:56:01.063Z,0.70
2022-11-18T07:58:28.535Z,0.60
2022-11-18T08:00:56.192Z,0.57
2022-11-18T08:03:27.937Z,0.50
2022-11-18T08:05:59.941Z,0.80
2022-11-18T08:08:27.474Z,0.57
2022-11-18T08:10:59.974Z,0.60
2022-11-18T08:13:27.841Z,0.60
2022-11-18T08:15:56.099Z,0.60
2022-11-18T08:18:26.529Z,0.50
2022-11-18T08:20:53.845Z,0.90
2022-11-18T08:23:21.227Z,0.60
2022-11-18T08:25:48.555Z,0.43
2022-11-18T08:28:16.424Z,0.50
2022-11-18T08:30:43.846Z,0.77
2022-11-18T08:33:11.240Z,0.53
2022-11-18T08:35:38.606Z,0.70
2022-11-18T08:38:05.861Z,0.73
2022-11-18T08:40:34.484Z,1.00
2022-11-18T08:43:03.433Z,0.60
2022-11-18T08:45:30.792Z,0.50
2022-11-18T08:47:58.143Z,0.60
2022-11-18T08:50:25.626Z,0.73
2022-11-18T08:52:53.133Z,0.60
2022-11-18T08:55:20.396Z,0.60
2022-11-18T08:57:48.103Z,0.67
2022-11-18T09:00:15.616Z,0.60
2022-11-18T09:02:43.063Z,0.70
2022-11-18T09:05:10.416Z,1.30
2022-11-18T09:07:37.947Z,0.80
2022-11-18T09:10:05.784Z,0.60
2022-11-18T09:12:33.254Z,0.60
2022-11-18T09:15:16.167Z,0.73
2022-11-18T09:17:43.882Z,0.60
2022-11-18T09:20:11.312Z,0.80
2022-11-18T09:22:39.337Z,0.93
2022-11-18T09:25:06.901Z,0.60
2022-11-18T09:27:34.257Z,0.60
2022-11-18T09:30:01.610Z,0.60
2022-11-18T09:32:28.926Z,0.80
2022-11-18T09:34:56.303Z,0.80
2022-11-18T09:37:23.618Z,0.60
2022-11-18T09:39:51.091Z,0.80
2022-11-18T09:42:28.370Z,0.70
2022-11-18T09:45:01.918Z,0.60
2022-11-18T09:47:30.811Z,0.70
2022-11-18T09:50:14.937Z,0.70
2022-11-18T09:53:17.444Z,0.80
2022-11-18T09:55:45.636Z,0.70
2022-11-18T09:58:24.864Z,1.63
2022-11-18T10:00:52.265Z,0.90
2022-11-18T10:03:39.950Z,0.70
2022-11-18T10:06:10.955Z,0.60
2022-11-18T10:08:41.411Z,0.60
2022-11-18T10:11:18.032Z,0.60
2022-11-18T10:14:04.068Z,0.60
2022-11-18T10:16:34.720Z,0.80
2022-11-18T10:19:25.698Z,0.60
2022-11-18T10:21:53.035Z,0.90
2022-11-18T10:24:21.655Z,0.50
2022-11-18T10:26:49.076Z,0.60
2022-11-18T10:29:16.505Z,0.50
2022-11-18T10:31:59.768Z,0.60
2022-11-18T10:34:31.876Z,0.83
2022-11-18T10:37:06.845Z,0.97
2022-11-18T10:39:34.428Z,0.60
2022-11-18T10:42:07.204Z,0.70
2022-11-18T10:44:36.298Z,1.40
2022-11-18T10:47:22.902Z,1.93
2022-11-18T10:49:51.138Z,0.80
2022-11-18T10:52:18.878Z,0.70
2022-11-18T10:54:46.353Z,1.70
2022-11-18T10:57:22.196Z,3.17
2022-11-18T10:59:51.426Z,1.40
2022-11-18T11:02:18.828Z,0.73
2022-11-18T11:04:47.299Z,0.70
2022-11-18T11:07:18.089Z,0.90
2022-11-18T11:09:45.575Z,0.70
2022-11-18T11:12:17.687Z,0.90
2022-11-18T11:14:53.225Z,0.90
2022-11-18T11:17:29.912Z,0.80
2022-11-18T11:20:07.088Z,1.03
2022-11-18T11:22:34.426Z,0.70
2022-11-18T11:25:01.778Z,1.73
2022-11-18T11:30:20.097Z,2.20
2022-11-18T11:33:02.750Z,2.10
2022-11-18T11:35:53.507Z,2.77
2022-11-18T11:38:27.217Z,3.40
2022-11-18T11:40:57.643Z,0.90
2022-11-18T11:43:31.986Z,2.00
2022-11-18T11:46:02.570Z,1.10
2022-11-18T11:48:37.003Z,1.00
2022-11-18T11:51:27.035Z,1.20
2022-11-18T11:53:54.602Z,1.00
2022-11-18T11:56:30.760Z,1.07
2022-11-18T11:59:17.021Z,0.70
2022-11-18T12:01:44.536Z,1.60
2022-11-18T12:04:27.461Z,0.90
2022-11-18T12:06:55.793Z,0.90
2022-11-18T12:09:31.880Z,1.00
2022-11-18T12:12:34.381Z,1.00
2022-11-18T12:15:21.892Z,0.60
2022-11-18T12:18:01.556Z,0.80
2022-11-18T12:20:39.140Z,1.13
2022-11-18T12:23:11.861Z,1.63
2022-11-18T12:25:53.301Z,3.00
2022-11-18T12:28:41.231Z,6.60
2022-11-18T12:31:21.173Z,6.17
2022-11-18T12:33:50.426Z,3.00
2022-11-18T12:36:36.464Z,2.77
2022-11-18T12:39:27.694Z,1.77
2022-11-18T12:42:13.372Z,5.23
2022-11-18T12:44:41.289Z,1.40
2022-11-18T12:47:12.893Z,1.00
2022-11-18T12:49:46.377Z,1.47
2022-11-18T12:52:32.100Z,1.50
2022-11-18T12:55:01.449Z,1.40
2022-11-18T12:57:30.389Z,0.93
2022-11-18T12:59:57.663Z,1.20
2022-11-18T13:02:29.470Z,1.37
2022-11-18T13:05:04.516Z,1.00
2022-11-18T13:07:53.920Z,1.17
2022-11-18T13:10:23.368Z,1.43
2022-11-18T13:12:52.761Z,1.00
2022-11-18T13:15:38.840Z,1.20
2022-11-18T13:18:17.341Z,1.60
2022-11-18T13:20:54.709Z,1.27
2022-11-18T13:23:45.784Z,1.87
2022-11-18T13:26:19.400Z,0.80
2022-11-18T13:29:05.403Z,3.43
2022-11-18T13:31:41.860Z,2.17
2022-11-18T13:34:18.371Z,1.30
2022-11-18T13:36:46.840Z,1.00
2022-11-18T13:39:34.351Z,0.87
2022-11-18T13:42:20.363Z,0.80
2022-11-18T13:44:52.941Z,0.73
2022-11-18T13:47:32.837Z,1.07
2022-11-18T13:50:05.438Z,1.30
2022-11-18T13:52:37.723Z,0.70
2022-11-18T13:55:10.394Z,1.00
2022-11-18T13:57:38.269Z,0.80
2022-11-18T14:00:07.181Z,0.70
2022-11-18T14:02:39.379Z,1.00
2022-11-18T14:05:06.858Z,1.50
2022-11-18T14:07:35.921Z,0.90
2022-11-18T14:10:07.668Z,0.90
2022-11-18T14:12:36.338Z,0.90
2022-11-18T14:15:14.125Z,1.00
2022-11-18T14:17:50.757Z,0.80
2022-11-18T14:20:21.439Z,0.80
2022-11-18T14:22:51.639Z,0.70
2022-11-18T14:25:28.031Z,1.00
2022-11-18T14:27:56.880Z,0.90
2022-11-18T14:30:30.884Z,0.90
2022-11-18T14:33:07.617Z,1.00
2022-11-18T14:35:35.253Z,0.80
2022-11-18T14:40:59.999Z,0.80
2022-11-18T14:43:27.300Z,0.80
2022-11-18T14:46:02.899Z,0.90
2022-11-18T14:48:32.769Z,0.90
2022-11-18T14:51:00.569Z,1.30
2022-11-18T14:53:27.965Z,1.00
2022-11-18T14:55:58.027Z,1.13
2022-11-18T14:58:25.267Z,1.60
2022-11-18T15:00:52.625Z,0.90
2022-11-18T15:03:20.026Z,1.10
2022-11-18T15:05:47.547Z,1.20
2022-11-18T15:08:16.520Z,9.97
2022-11-18T15:10:44.205Z,19.17
2022-11-18T15:13:11.889Z,11.83
2022-11-18T15:15:39.195Z,4.57
2022-11-18T15:18:06.580Z,1.90
2022-11-18T15:20:34.052Z,1.80
2022-11-18T15:23:01.327Z,1.33
2022-11-18T15:25:28.601Z,1.40
2022-11-18T15:27:55.884Z,1.30
2022-11-18T15:30:24.975Z,1.40
2022-11-18T15:32:52.326Z,1.40
2022-11-18T15:35:19.589Z,2.00
2022-11-18T15:37:46.969Z,1.30
2022-11-18T15:40:14.540Z,2.60
2022-11-18T15:42:50.437Z,1.90
2022-11-18T15:45:19.180Z,1.80
2022-11-18T15:47:47.746Z,1.80
2022-11-18T15:50:15.314Z,1.40
2022-11-18T15:52:42.577Z,2.40
2022-11-18T15:55:10.169Z,1.73
2022-11-18T15:57:37.399Z,1.80
2022-11-18T16:00:05.328Z,1.40
2022-11-18T16:02:32.606Z,1.17
2022-11-18T16:04:59.888Z,1.43
2022-11-18T16:07:27.585Z,1.50
2022-11-18T16:10:13.514Z,1.43
2022-11-18T16:12:46.866Z,1.33
2022-11-18T16:15:33.267Z,1.83
2022-11-18T16:18:01.077Z,1.30
2022-11-18T16:20:29.237Z,10.30
2022-11-18T16:22:57.435Z,4.00
2022-11-18T16:25:25.076Z,6.40
2022-11-18T16:27:52.817Z,1.80
2022-11-18T16:30:39.400Z,2.30
2022-11-18T16:33:06.904Z,1.40
2022-11-18T16:35:34.135Z,1.67
2022-11-18T16:38:01.555Z,1.30
2022-11-18T16:40:28.812Z,1.20
2022-11-18T16:42:56.564Z,1.23
2022-11-18T16:45:23.872Z,1.20
2022-11-18T16:47:51.122Z,1.47
2022-11-18T16:50:18.969Z,1.60
2022-11-18T16:52:46.356Z,5.23
2022-11-18T16:55:13.666Z,2.20
2022-11-18T16:57:41.215Z,1.80
2022-11-18T17:00:08.890Z,1.50
2022-11-18T17:02:36.539Z,1.43
2022-11-18T17:05:04.033Z,1.50
2022-11-18T17:07:36.906Z,1.37
2022-11-18T17:10:06.115Z,0.97
2022-11-18T17:12:33.416Z,1.37
2022-11-18T17:15:00.694Z,1.00
2022-11-18T17:17:28.017Z,1.30
2022-11-18T17:19:55.217Z,1.40
2022-11-18T17:22:22.602Z,1.40
2022-11-18T17:24:50.150Z,4.10
2022-11-18T17:27:17.414Z,7.20
2022-11-18T17:29:45.083Z,2.93
2022-11-18T17:32:12.750Z,6.03
2022-11-18T17:34:40.040Z,3.50
2022-11-18T17:37:07.463Z,9.20
2022-11-18T17:39:35.334Z,21.23
2022-11-18T17:42:14.731Z,2.67
2022-11-18T17:44:42.087Z,3.87
2022-11-18T17:47:09.481Z,3.13
2022-11-18T17:49:36.685Z,1.90
2022-11-18T17:52:03.995Z,1.70
2022-11-18T17:54:31.607Z,2.00
2022-11-18T17:56:59.136Z,1.40
2022-11-18T17:59:26.542Z,11.43
2022-11-18T18:01:59.030Z,11.33
2022-11-18T18:04:26.803Z,10.03
2022-11-18T18:06:54.969Z,11.50
2022-11-18T18:09:30.157Z,3.80
2022-11-18T18:11:58.753Z,5.57
2022-11-18T18:14:26.856Z,3.03
2022-11-18T18:16:54.884Z,6.30
2022-11-18T18:19:25.197Z,2.90
2022-11-18T18:21:53.514Z,2.10
2022-11-18T18:24:21.814Z,3.60
2022-11-18T18:26:49.451Z,2.73
2022-11-18T18:29:16.854Z,2.67
2022-11-18T18:31:44.538Z,2.43
2022-11-18T18:34:11.916Z,1.70
2022-11-18T18:36:39.339Z,2.70
2022-11-18T18:39:07.486Z,1.50
2022-11-18T18:41:34.793Z,1.80
2022-11-18T18:44:02.280Z,2.00
2022-11-18T18:46:31.025Z,1.37
2022-11-18T18:49:03.385Z,2.37
2022-11-18T18:51:39.962Z,1.83
2022-11-18T18:54:08.140Z,1.70
2022-11-18T18:56:35.437Z,1.53
2022-11-18T18:59:03.408Z,2.40
2022-11-18T19:01:30.892Z,2.10
2022-11-18T19:03:59.796Z,2.20
2022-11-18T19:06:56.900Z,1.60
2022-11-18T19:09:21.597Z,1.80
2022-11-18T19:12:07.885Z,1.33
2022-11-18T19:14:35.585Z,1.70
2022-11-18T19:17:09.671Z,1.80
2022-11-18T19:19:57.365Z,1.50
2022-11-18T19:22:24.923Z,1.57
2022-11-18T19:24:53.868Z,1.30
2022-11-18T19:27:21.786Z,1.60
2022-11-18T19:29:49.396Z,1.60
2022-11-18T19:32:17.559Z,1.80
2022-11-18T19:34:44.783Z,1.60
2022-11-18T19:37:12.041Z,2.30
2022-11-18T19:39:39.439Z,1.43
2022-11-18T19:42:07.696Z,1.50
2022-11-18T19:44:35.837Z,1.73
2022-11-18T19:47:03.223Z,2.60
2022-11-18T19:49:30.675Z,2.83
2022-11-18T19:51:58.129Z,1.80
2022-11-18T19:54:25.471Z,1.90
2022-11-18T19:56:52.728Z,1.37
2022-11-18T19:59:20.409Z,1.30
2022-11-18T20:01:47.926Z,1.20
2022-11-18T20:04:15.215Z,1.53
2022-11-18T20:06:42.493Z,1.30
2022-11-18T20:09:11.153Z,1.73
2022-11-18T20:11:38.611Z,1.27
2022-11-18T20:14:06.353Z,1.60
2022-11-18T20:16:33.937Z,1.33
2022-11-18T20:19:06.324Z,1.77
2022-11-18T20:21:35.323Z,1.40
2022-11-18T20:24:04.249Z,1.27
2022-11-18T20:26:36.018Z,1.33
2022-11-18T20:29:03.970Z,1.53
2022-11-18T20:31:33.275Z,1.40
2022-11-18T20:34:01.507Z,1.43
2022-11-18T20:36:31.373Z,1.70
2022-11-18T20:39:11.968Z,1.50
2022-11-18T20:41:39.249Z,1.70
2022-11-18T20:44:06.535Z,1.57
2022-11-18T20:46:34.712Z,2.30
2022-11-18T20:49:02.059Z,2.57
2022-11-18T20:51:29.816Z,2.70
2022-11-18T20:53:57.366Z,3.00
2022-11-18T20:56:25.795Z,2.97
2022-11-18T20:58:53.385Z,2.63
2022-11-18T21:01:22.094Z,2.30
2022-11-18T21:03:54.091Z,1.90
2022-11-18T21:06:22.450Z,2.20
2022-11-18T21:08:49.973Z,3.77
2022-11-18T21:11:17.362Z,5.97
2022-11-18T21:14:03.327Z,5.13
2022-11-18T21:16:30.697Z,3.00
2022-11-18T21:18:57.931Z,2.57
2022-11-18T21:21:43.706Z,3.13
2022-11-18T21:24:11.660Z,3.13
2022-11-18T21:26:39.112Z,3.87
2022-11-18T21:29:07.688Z,4.37
2022-11-18T21:31:35.430Z,4.80
2022-11-18T21:34:03.034Z,4.90
2022-11-18T21:36:31.736Z,5.30
2022-11-18T21:38:59.491Z,5.90
2022-11-18T21:41:27.522Z,4.60
2022-11-18T21:44:10.250Z,4.20
2022-11-18T21:46:38.882Z,5.10
2022-11-18T21:49:07.095Z,6.40
2022-11-18T21:51:34.889Z,4.23
2022-11-18T21:54:02.436Z,6.17
2022-11-18T21:56:31.607Z,3.93
2022-11-18T21:59:00.389Z,3.40
2022-11-18T22:01:31.797Z,3.37
2022-11-18T22:04:00.042Z,2.60
2022-11-18T22:06:29.797Z,2.60
2022-11-18T22:08:57.363Z,3.07
2022-11-18T22:11:25.782Z,4.90
2022-11-18T22:13:53.861Z,3.03
2022-11-18T22:16:22.765Z,2.43
2022-11-18T22:18:56.559Z,2.80
2022-11-18T22:21:26.718Z,3.07
2022-11-18T22:23:54.160Z,3.40
2022-11-18T22:26:22.258Z,3.30
2022-11-18T22:28:53.777Z,2.43
2022-11-18T22:31:21.997Z,2.77
2022-11-18T22:33:49.998Z,1.90
2022-11-18T22:36:19.421Z,2.20
2022-11-18T22:38:46.933Z,2.40
2022-11-18T22:41:34.200Z,2.43
2022-11-18T22:44:07.111Z,2.03
2022-11-18T22:46:36.944Z,1.80
2022-11-18T22:49:04.379Z,2.00
2022-11-18T22:51:31.731Z,1.77
2022-11-18T22:56:46.277Z,2.00
2022-11-18T22:59:13.594Z,2.00
2022-11-18T23:01:41.423Z,2.10
2022-11-18T23:04:08.711Z,1.97
2022-11-18T23:06:35.912Z,1.90
2022-11-18T23:09:03.411Z,2.20
2022-11-18T23:11:49.769Z,2.43
2022-11-18T23:14:17.199Z,2.60
2022-11-18T23:16:44.974Z,2.73
2022-11-18T23:19:13.583Z,2.83
2022-11-18T23:21:42.412Z,2.57
2022-11-18T23:24:13.592Z,2.47
2022-11-18T23:26:41.153Z,2.30
2022-11-18T23:29:08.411Z,2.40
2022-11-18T23:31:35.697Z,2.40
2022-11-18T23:34:03.006Z,2.40
2022-11-18T23:36:30.587Z,2.57
2022-11-18T23:38:57.902Z,2.40
2022-11-18T23:41:26.296Z,2.57
2022-11-18T23:43:54.291Z,2.50
2022-11-18T23:46:21.726Z,2.70
2022-11-18T23:48:49.895Z,2.93
2022-11-18T23:51:18.791Z,2.40
2022-11-18T23:53:48.698Z,2.70
2022-11-18T23:56:16.874Z,2.90
2022-11-18T23:58:45.272Z,2.80
